Latest Weather Observations for Hindmarsh Island

IDS60901

Issued at 9:31 pm CST Tuesday 26 May 2015 (issued every 10 minutes, with the page automatically refreshed every 10 minutes)

About weather observations | Map of Adelaide area stations | Latest observations for Adelaide area | Other Formats
Station Details ID: 023894 Name: HINDMARSH ISLAND AWS Lat: -35.52 Lon: 138.82 Height: 11.0 m
Data from the previous 72 hours. | See also: Recent months at Hindmarsh Island
Date/Time
CST
Tmp

°C
App
Tmp
°C
Dew
Point
°C
Rel
Hum
%
Delta-T

°C
Wind Press
QNH
hPa
Press
MSL
hPa
Rain
since
9 am
mm
Dir
 
Spd
km/h
Gust
km/h
Spd
kts
Gust
kts
26/09:30pm 15.0 12.1 9.8 71 2.7 NNW 15 19 8 10 1021.0 - 0.0
26/09:00pm 14.2 12.3 10.4 78 2.0 N 11 13 6 7 1021.0 1021.0 0.0
26/08:30pm 14.8 13.4 10.8 77 2.1 N 9 11 5 6 1021.1 - 0.0
26/08:00pm 14.7 13.0 11.3 80 1.8 N 11 11 6 6 1021.0 - 0.0
26/07:30pm 14.8 13.7 10.8 77 2.1 NNE 7 11 4 6 1020.9 - 0.0
26/07:00pm 15.4 14.5 10.6 73 2.5 NE 6 7 3 4 1020.9 - 0.0
26/06:30pm 15.2 13.7 10.6 74 2.4 NE 9 11 5 6 1020.7 - 0.0
26/06:00pm 15.6 14.8 11.2 75 2.3 E 6 9 3 5 1020.8 1020.8 0.0
26/05:30pm 16.5 15.9 11.6 73 2.7 E 6 7 3 4 1020.8 - 0.0
26/05:00pm 16.9 16.3 11.8 72 2.8 E 6 7 3 4 1020.7 - 0.0
26/04:30pm 17.9 17.2 12.1 69 3.2 NNE 7 9 4 5 1020.8 - 0.0
26/04:00pm 18.1 16.3 12.1 68 3.3 NE 13 13 7 7 1020.6 - 0.0
26/03:30pm 18.6 17.7 11.2 62 4.0 NE 7 11 4 6 1020.7 - 0.0
26/03:00pm 19.3 18.1 10.3 56 4.8 N 7 7 4 4 1020.7 1020.7 0.0
26/02:30pm 19.1 17.8 9.9 55 4.9 N 7 9 4 5 1021.0 - 0.0
26/02:00pm 19.0 17.7 10.0 56 4.8 N 7 9 4 5 1021.4 - 0.0
26/01:30pm 18.8 17.7 10.6 59 4.4 N 7 11 4 6 1021.9 - 0.0
26/01:00pm 18.5 16.8 11.3 63 3.9 N 11 13 6 7 1022.5 - 0.0
26/12:30pm 18.5 16.8 11.3 63 3.9 N 11 15 6 8 1022.8 - 0.0
26/12:00pm 17.4 15.2 10.8 65 3.5 N 13 17 7 9 1023.3 1023.3 0.0
26/11:30am 17.3 14.8 11.1 67 3.3 NNE 15 17 8 9 1023.6 - 0.0
26/11:00am 16.2 13.8 10.1 67 3.2 N 13 17 7 9 1024.2 - 0.0
26/10:30am 15.7 13.5 10.7 72 2.7 N 13 17 7 9 1024.6 - 0.0
26/10:00am 13.9 11.4 9.7 76 2.2 N 13 19 7 10 1025.0 - 0.0
26/09:30am 13.0 9.1 9.3 78 1.9 N 20 28 11 15 1025.0 - 0.0
26/09:00am 12.5 8.7 9.1 80 1.7 NNE 19 22 10 12 1025.2 1025.2 0.0
26/08:30am 11.8 8.7 8.8 82 1.5 NNE 15 22 8 12 1025.3 - 0.0
26/08:00am 11.5 8.4 8.9 84 1.3 NNE 15 17 8 9 1025.3 - 0.0
26/07:30am 10.6 8.5 8.2 85 1.2 ENE 9 13 5 7 1025.2 - 0.0
26/07:00am 10.9 8.0 8.1 83 1.4 N 13 17 7 9 1025.3 - 0.0
26/06:30am 11.1 7.5 8.3 83 1.4 N 17 20 9 11 1025.2 - 0.0
26/06:00am 11.4 7.2 8.4 82 1.5 NNE 20 26 11 14 1025.0 1025.0 0.0
26/05:30am 11.5 7.4 8.7 83 1.4 NNE 20 24 11 13 1025.1 - 0.0
26/05:00am 11.9 8.4 8.9 82 1.5 NNE 17 22 9 12 1025.1 - 0.0
26/04:30am 11.5 8.0 8.7 83 1.4 NE 17 19 9 10 1025.1 - 0.0
26/04:00am 11.6 8.1 8.8 83 1.4 NNE 17 20 9 11 1025.3 - 0.0
26/03:30am 11.5 8.0 8.7 83 1.4 NNE 17 20 9 11 1025.4 - 0.0
26/03:00am 11.3 8.5 8.5 83 1.4 NNE 13 15 7 8 1025.6 1025.6 0.0
26/02:30am 11.5 8.4 8.9 84 1.3 N 15 17 8 9 1026.0 - 0.0
26/02:00am 11.5 8.8 8.9 84 1.3 N 13 15 7 8 1026.1 - 0.0
26/01:30am 11.4 9.1 9.1 86 1.1 N 11 13 6 7 1026.2 - 0.0
26/01:00am 10.7 8.7 8.5 86 1.1 NNE 9 11 5 6 1026.2 - 0.0
26/12:30am 10.4 8.2 7.8 84 1.2 E 9 9 5 5 1026.4 - 0.0
26/12:00am 11.2 9.5 8.2 82 1.5 N 7 9 4 5 1026.7 1026.7 0.0
 
Date/Time
CST
Tmp

°C
App
Tmp
°C
Dew
Point
°C
Rel
Hum
%
Delta-T

°C
Wind Press
QNH
hPa
Press
MSL
hPa
Rain
since
9 am
mm
Dir
 
Spd
km/h
Gust
km/h
Spd
kts
Gust
kts
25/11:30pm 11.3 9.3 8.5 83 1.4 N 9 13 5 7 1027.1 - 0.0
25/11:00pm 11.7 10.3 8.9 83 1.4 NNE 6 7 3 4 1027.3 - 0.0
25/10:30pm 11.2 9.5 7.7 79 1.7 NW 6 7 3 4 1027.2 - 0.0
25/10:00pm 12.4 12.0 8.3 76 2.0 CALM 0 0 0 0 1027.3 - 0.0
25/09:30pm 12.1 10.8 7.8 75 2.1 NW 4 6 2 3 1027.5 - 0.0
25/09:00pm 11.9 10.2 8.2 78 1.8 NW 7 11 4 6 1027.8 1027.8 0.0
25/08:30pm 12.2 10.1 8.3 77 1.9 NNE 9 11 5 6 1027.2 - 0.0
25/08:00pm 12.0 9.0 7.5 74 2.2 NE 13 15 7 8 1027.5 - 0.0
25/07:30pm 12.3 10.6 8.2 76 2.0 NNE 7 9 4 5 1027.2 - 0.0
25/07:00pm 13.2 11.9 9.1 76 2.1 ESE 6 7 3 4 1027.2 - 0.0
25/06:30pm 13.3 11.8 9.0 75 2.2 ESE 7 9 4 5 1026.9 - 0.0
25/06:00pm 14.0 12.6 9.6 75 2.2 ESE 7 9 4 5 1027.0 1027.0 0.0
25/05:30pm 14.0 12.3 10.0 77 2.1 SE 9 11 5 6 1026.8 - 0.0
25/05:00pm 14.6 12.3 10.6 77 2.1 SE 13 15 7 8 1026.4 - 0.0
25/04:30pm 15.2 12.6 10.6 74 2.4 SE 15 17 8 9 1026.1 - 0.0
25/04:00pm 16.0 13.0 10.7 71 2.8 SE 17 20 9 11 1026.3 - 0.0
25/03:30pm 16.9 13.3 9.8 63 3.7 SSE 19 20 10 11 1026.2 - 0.0
25/03:00pm 17.6 14.6 9.2 58 4.4 SE 15 17 8 9 1026.2 - 0.0
25/02:30pm 17.8 15.2 9.2 57 4.5 SE 13 17 7 9 1026.2 - 0.0
25/02:00pm 18.1 15.2 9.5 57 4.5 SE 15 17 8 9 1026.1 - 0.0
25/01:30pm 18.2 16.0 9.3 56 4.7 ESE 11 17 6 9 1026.3 - 0.0
25/01:00pm 18.3 15.9 8.8 54 4.9 ESE 11 17 6 9 1026.3 - 0.0
25/12:30pm 17.7 15.7 10.3 62 3.9 SSE 11 13 6 7 1026.7 - 0.0
25/12:00pm 18.2 16.0 7.9 51 5.2 NE 9 13 5 7 1027.5 1027.5 0.0
25/11:30am 17.5 15.1 8.6 56 4.6 NNE 11 13 6 7 1028.2 - 0.0
25/11:00am 16.3 13.8 8.3 59 4.1 NNE 11 15 6 8 1028.6 - 0.0
25/10:30am 16.2 14.6 8.7 61 3.8 ENE 7 9 4 5 1028.9 - 0.0
25/10:00am 15.1 13.7 9.5 69 2.9 ENE 7 11 4 6 1029.1 - 0.0
25/09:30am 14.0 13.4 9.0 72 2.5 N 2 7 1 4 1029.2 - 0.0
25/09:00am 12.6 11.6 8.7 77 1.9 N 4 7 2 4 1029.2 1029.2 0.0
25/08:30am 11.8 11.5 8.8 82 1.5 CALM 0 0 0 0 1029.3 - 0.0
25/08:00am 10.3 7.8 8.1 86 1.1 N 11 15 6 8 1029.0 - 0.0
25/07:30am 9.6 7.3 7.4 86 1.0 NNE 9 13 5 7 1028.8 - 0.0
25/07:00am 9.4 7.0 7.2 86 1.0 NNE 9 13 5 7 1028.6 - 0.0
25/06:30am 9.7 7.9 7.1 84 1.2 NNE 6 9 3 5 1028.4 - 0.0
25/06:00am 10.6 7.6 7.7 82 1.4 N 13 15 7 8 1028.2 1028.2 0.0
25/05:30am 10.9 8.0 8.3 84 1.3 N 13 15 7 8 1028.1 - 0.0
25/05:00am 11.0 8.2 8.4 84 1.3 N 13 15 7 8 1028.0 - 0.0
25/04:30am 10.7 8.3 8.5 86 1.1 NNE 11 15 6 8 1028.0 - 0.0
25/04:00am 10.7 9.0 8.3 85 1.2 NE 7 11 4 6 1027.9 - 0.0
25/03:30am 11.0 9.5 8.6 85 1.2 NW 6 11 3 6 1027.8 - 0.0
25/03:00am 10.9 8.1 8.5 85 1.2 NE 13 20 7 11 1028.1 1028.2 0.0
25/02:30am 11.2 8.8 8.8 85 1.2 N 11 15 6 8 1028.6 - 0.0
25/02:00am 10.6 9.9 8.4 86 1.1 NNE 2 9 1 5 1028.4 - 0.0
25/01:30am 11.0 9.0 8.8 86 1.1 N 9 11 5 6 1028.3 - 0.0
25/01:00am 11.1 9.1 8.8 86 1.1 N 9 11 5 6 1028.2 - 0.0
25/12:30am 11.2 9.2 8.8 85 1.2 N 9 11 5 6 1028.3 - 0.0
25/12:00am 10.9 9.5 8.8 87 1.0 NE 6 7 3 4 1028.4 - 0.0
 
Date/Time
CST
Tmp

°C
App
Tmp
°C
Dew
Point
°C
Rel
Hum
%
Delta-T

°C
Wind Press
QNH
hPa
Press
MSL
hPa
Rain
since
9 am
mm
Dir
 
Spd
km/h
Gust
km/h
Spd
kts
Gust
kts
24/11:30pm 10.4 8.3 8.3 87 1.0 ENE 9 9 5 5 1028.3 - 0.0
24/11:00pm 10.8 8.0 8.6 86 1.1 NE 13 15 7 8 1028.5 - 0.0
24/10:30pm 11.2 8.8 8.8 85 1.2 N 11 17 6 9 1028.8 - 0.0
24/10:00pm 11.6 9.4 9.3 86 1.2 N 11 19 6 10 1028.4 - 0.0
24/09:30pm 10.8 8.7 8.4 85 1.2 E 9 13 5 7 1027.8 - 0.0
24/09:00pm 11.2 9.1 8.4 83 1.4 NE 9 11 5 6 1028.0 1028.0 0.0
24/08:30pm 11.4 9.7 8.4 82 1.5 NNE 7 11 4 6 1028.4 - 0.0
24/08:00pm 12.0 10.0 8.7 80 1.6 NNE 9 11 5 6 1028.4 - 0.0
24/07:30pm 12.3 10.8 9.0 80 1.7 NNE 7 9 4 5 1028.6 - 0.0
24/07:00pm 12.6 9.9 9.1 79 1.8 N 13 15 7 8 1028.7 - 0.0
24/06:30pm 12.0 9.6 8.5 79 1.7 NE 11 15 6 8 1028.5 - 0.0
24/06:00pm 12.5 10.1 8.8 78 1.8 NE 11 13 6 7 1028.3 1028.2 0.0
24/05:30pm 13.3 10.6 9.0 75 2.2 NNE 13 15 7 8 1028.0 - 0.0
24/05:00pm 13.1 11.2 9.2 77 2.0 ENE 9 11 5 6 1028.0 - 0.0
24/04:30pm 13.7 11.8 9.0 73 2.4 NE 9 11 5 6 1027.7 - 0.0
24/04:00pm 14.4 12.6 9.6 73 2.5 E 9 9 5 5 1027.7 - 0.0
24/03:30pm 15.1 13.7 9.7 70 2.8 NNE 7 11 4 6 1027.6 - 0.0
24/03:00pm 15.3 14.4 9.2 67 3.1 NE 4 9 2 5 1027.4 1027.3 0.0
24/02:30pm 15.6 14.3 9.1 65 3.3 NNE 6 7 3 4 1027.2 - 0.0
24/02:00pm 15.4 14.7 8.6 64 3.5 NNE 2 7 1 4 1027.3 - 0.0
24/01:30pm 15.6 13.3 9.1 65 3.3 NNE 11 13 6 7 1027.4 - 0.0
24/01:00pm 14.9 13.1 9.3 69 2.9 NNE 9 11 5 6 1027.8 - 0.0
24/12:30pm 13.9 11.5 8.7 71 2.6 NNE 11 13 6 7 1028.0 - 0.0
24/12:00pm 13.2 10.4 8.7 74 2.2 NNE 13 17 7 9 1028.3 1028.3 0.0
24/11:30am 12.9 10.1 8.4 74 2.2 N 13 17 7 9 1028.5 - 0.0
24/11:00am 11.6 8.7 8.1 79 1.7 N 13 17 7 9 1028.7 - 0.0
24/10:30am 10.4 6.5 7.3 81 1.5 NNE 17 20 9 11 1028.6 - 0.0
24/10:00am 10.0 6.4 6.7 80 1.5 N 15 19 8 10 1028.8 - 0.0
24/09:30am 9.2 6.3 6.3 82 1.3 NNE 11 17 6 9 1028.9 - 0.0
24/09:00am 8.2 4.8 5.7 84 1.1 N 13 15 7 8 1028.9 1028.9 0.2
24/08:30am 7.6 4.1 5.6 87 0.9 N 13 17 7 9 1028.6 - 0.2
24/08:00am 7.0 3.8 5.2 88 0.8 NNE 11 15 6 8 1028.5 - 0.2
24/07:30am 6.6 3.4 4.9 89 0.7 NNE 11 19 6 10 1028.4 - 0.0
24/07:00am 5.0 1.8 3.2 88 0.7 NE 9 11 5 6 1028.3 - 0.0
24/06:30am 6.0 2.6 4.0 87 0.8 NNE 11 15 6 8 1028.2 - 0.0
24/06:00am 6.3 3.4 4.5 88 0.8 NNE 9 13 5 7 1028.1 - 0.0
24/05:30am 6.6 3.3 4.8 88 0.8 NNE 11 17 6 9 1028.0 - 0.0
24/05:00am 5.5 2.0 3.7 88 0.8 NNE 11 13 6 7 1027.8 - 0.0
24/04:30am 6.7 4.8 4.9 88 0.8 NNE 4 9 2 5 1027.7 - 0.0
24/04:00am 6.9 3.3 5.1 88 0.8 NNE 13 17 7 9 1027.7 - 0.0
24/03:30am 6.8 3.6 5.0 88 0.8 N 11 13 6 7 1027.9 - 0.0
24/03:00am 7.5 4.4 5.6 88 0.8 N 11 15 6 8 1028.0 1028.1 0.0
24/02:30am 7.4 3.6 5.7 89 0.8 NNE 15 19 8 10 1028.1 - 0.0
24/02:00am 7.3 3.8 5.6 89 0.8 NNE 13 15 7 8 1028.2 - 0.0
24/01:30am 7.3 3.8 5.6 89 0.8 NNE 13 15 7 8 1028.3 - 0.0
24/01:00am 7.1 3.9 5.3 88 0.8 N 11 13 6 7 1028.5 - 0.0
24/12:30am 7.5 5.2 5.5 87 0.9 NNE 7 9 4 5 1028.7 - 0.0
24/12:00am 7.6 5.2 5.4 86 1.0 NE 7 9 4 5 1028.9 1028.9 0.0
 
Date/Time
CST
Tmp

°C
App
Tmp
°C
Dew
Point
°C
Rel
Hum
%
Delta-T

°C
Wind Press
QNH
hPa
Press
MSL
hPa
Rain
since
9 am
mm
Dir
 
Spd
km/h
Gust
km/h
Spd
kts
Gust
kts
23/11:30pm 8.6 6.0 6.2 85 1.1 NNE 9 11 5 6 1029.0 - 0.0
23/11:00pm 8.8 5.1 6.2 84 1.2 NE 15 17 8 9 1029.1 - 0.0
23/10:30pm 9.6 5.7 7.0 84 1.2 NNE 17 17 9 9 1029.2 - 0.0
23/10:00pm 9.5 6.0 7.4 87 1.0 NNE 15 17 8 9 1029.4 - 0.0

Latest Capital City Observations: Canberra | Sydney | Melbourne | Brisbane | Adelaide | Perth | Hobart | Darwin

Other Formats:

Comma delimited format used in spreadsheet applications
http://www.bom.gov.au/fwo/IDS60901/IDS60901.94677.axf

JavaScript Object Notation format (JSON) in row-major order
http://www.bom.gov.au/fwo/IDS60901/IDS60901.94677.json